Chanute Martin Johnson Airport
KCNU : now visible

Airfield :











YOU CAN JOIN US ON...

 
LOGIN :

Register | Disclaimer

   EN    FR    IT 

 









Legend :    VFR   Marginal VFR   IFR   Intensive IFR   Very Intensive IFR
Visi :
Ceiling :
>= 8 km
>= 3000ft
5 to 8 km
1000 to 3000 ft
1500m to 5 km
500 to 1000 ft
800 to 1500m
200 to 500 ft
< 800m
< 200 ft
Symbols :   Thunderstorms  Fog  Heavy snow  Heavy precipitations  Wind > 20 kt






- Airport Elevation : 1002 ft


KCNU - Chanute Martin Johnson

CURRENT METAR :
  • 231752Z AUTO 19014G28KT 10SM FEW100 29/20 A2993 RMK AO2 PK WND 18028/1745 SLP122 T02940200 10300 20200 58006

EXPIRED METARs :
  • 231652Z AUTO 17014G23KT 10SM CLR 28/19 A2993 RMK AO2 PK WND 17026/1622 SLP125 T02830189
  • 231552Z AUTO 18018G25KT 10SM FEW029 27/17 A2994 RMK AO2 SLP128 T02670172

TAF KCNU
Valid from the 23 at 18:00 until the 24 at 18:00 UTC


231738Z 2318/2418 18015G30KT P6SM FEW040 SCT250
FM240200 17015KT P6SM SCT250
FM240900 18015KT P6SM SCT020 BKN150 WS020/20040KT
FM241400 18015G30KT P6SM SCT020 BKN070
KZKC FIR / North America



MET'MAP, your aeronautical weather chart ! - Copyright ORBIFLY December 2007 - Disclaimer

ORBIFLY MET'MAP TEAM :

Programming & Development : Alexandra Zaïnal
Concept & original design : Baudouin d'Aumeries
Assistance for programming : Marc-Olivier Méhu
Technical & hardware support : Manuel Goepfert

Contact : metmap@orbifly.com




SOURCES & CREDITS :

   NOAA       Earth
Advisory